Latest Weather Observations for Kingaroy

IDQ60901

Issued at 12:31 pm EST Thursday 5 March 2015 (issued every 10 minutes, with the page automatically refreshed every 10 minutes)

About weather observations | Map of Brisbane area stations | Latest observations for Brisbane area | Other Formats
Station Details ID: 040922 Name: KINGAROY AIRPORT Lat: -26.57 Lon: 151.84 Height: 433.67 m
Data from the previous 72 hours. | See also: Recent months at Kingaroy
Date/Time
EST
Tmp

°C
App
Tmp
°C
Dew
Point
°C
Rel
Hum
%
Delta-T

°C
Wind Press
QNH
hPa
Press
MSL
hPa
Rain
since
9 am
mm
Dir
 
Spd
km/h
Gust
km/h
Spd
kts
Gust
kts
05/12:30pm 32.9 32.9 19.0 43 9.3 WNW 17 28 9 15 1009.3 1007.1 0.0
05/12:00pm 31.9 31.3 18.5 45 8.8 NW 19 28 10 15 1010.0 1007.9 0.0
05/11:30am 30.9 30.2 18.3 47 8.2 NW 19 24 10 13 1010.3 1008.2 0.0
05/11:00am 30.2 30.6 18.9 50 7.5 WNW 15 22 8 12 1010.9 1008.8 0.0
05/10:30am 29.8 30.5 18.9 52 7.2 WNW 13 20 7 11 1011.3 1009.2 0.0
05/10:00am 28.5 28.3 19.4 57 6.0 NW 19 22 10 12 1011.8 1009.6 0.0
05/09:30am 27.4 28.6 20.7 67 4.5 NW 15 20 8 11 1012.0 1009.9 0.0
05/09:00am 25.8 26.1 20.4 72 3.6 NW 19 24 10 13 1012.1 1010.0 0.0
05/08:30am 25.0 25.3 20.3 75 3.1 NW 19 28 10 15 1012.0 1009.9 0.0
05/08:00am 23.6 24.0 19.9 80 2.4 NNW 17 20 9 11 1012.2 1010.1 0.0
05/07:30am 22.5 24.2 20.2 87 1.5 NW 11 15 6 8 1012.2 1010.1 0.0
05/07:00am 21.3 22.5 19.8 91 1.0 NW 13 17 7 9 1012.1 1010.0 0.0
05/06:30am 21.0 22.2 20.0 94 0.7 NNW 13 17 7 9 1011.9 1009.7 0.0
05/06:00am 20.8 22.3 19.8 94 0.6 NNW 11 15 6 8 1011.7 1009.5 0.0
05/05:30am 20.7 21.7 19.5 93 0.8 NNW 13 17 7 9 1011.5 1009.3 0.0
05/05:00am 20.9 22.8 19.7 93 0.8 NNW 9 13 5 7 1011.3 1009.2 0.0
05/04:30am 21.0 22.2 19.8 93 0.8 NNW 13 17 7 9 1011.2 1009.1 0.0
05/04:00am 20.9 22.5 19.9 94 0.7 NNW 11 17 6 9 1011.1 1009.0 0.0
05/03:30am 20.6 22.1 19.8 95 0.5 NNW 11 17 6 9 1011.2 1009.1 0.0
05/03:00am 20.4 22.6 19.6 95 0.5 NW 7 9 4 5 1011.3 1009.2 0.0
05/02:30am 19.8 23.1 19.0 95 0.5 CALM 0 0 0 0 1011.7 1009.5 0.0
05/02:00am 19.4 22.3 18.2 93 0.8 CALM 0 0 0 0 1012.0 1009.9 0.0
05/01:30am 19.6 22.6 18.4 93 0.8 CALM 0 0 0 0 1012.5 1010.4 0.0
05/01:00am 19.8 22.4 18.5 92 0.8 NE 2 7 1 4 1012.7 1010.6 0.0
05/12:30am 20.4 22.8 18.7 90 1.1 NNE 4 7 2 4 1013.2 1011.1 0.0
05/12:00am 20.8 23.5 18.6 87 1.4 ENE 2 7 1 4 1013.4 1011.3 0.0
 
Date/Time
EST
Tmp

°C
App
Tmp
°C
Dew
Point
°C
Rel
Hum
%
Delta-T

°C
Wind Press
QNH
hPa
Press
MSL
hPa
Rain
since
9 am
mm
Dir
 
Spd
km/h
Gust
km/h
Spd
kts
Gust
kts
04/11:30pm 21.2 23.2 18.8 86 1.5 NE 6 9 3 5 1013.7 1011.6 0.0
04/11:00pm 21.7 23.5 18.7 83 1.9 NNE 7 11 4 6 1014.0 1011.8 0.0
04/10:30pm 21.7 23.3 17.9 79 2.4 E 6 9 3 5 1014.1 1012.0 0.0
04/10:00pm 21.0 23.4 17.0 78 2.5 CALM 0 0 0 0 1014.0 1011.8 0.0
04/09:30pm 21.7 24.1 16.9 74 3.0 CALM 0 0 0 0 1014.2 1012.1 0.0
04/09:00pm 22.5 24.7 16.5 69 3.7 CALM 0 0 0 0 1014.3 1012.2 0.0
04/08:30pm 22.8 24.7 16.6 68 3.9 E 2 6 1 3 1014.1 1012.0 0.0
04/08:00pm 22.8 25.1 16.8 69 3.7 CALM 0 0 0 0 1014.0 1011.8 0.0
04/07:30pm 23.3 25.0 17.1 68 3.9 E 4 9 2 5 1013.5 1011.4 0.0
04/07:00pm 24.7 25.3 16.9 62 4.9 E 9 11 5 6 1013.1 1011.0 0.0
04/06:30pm 24.9 25.9 16.9 61 5.0 E 7 9 4 5 1013.0 1010.9 0.0
04/06:00pm 28.7 29.4 15.6 45 8.2 E 6 7 3 4 1012.9 1010.8 0.0
04/05:30pm 29.8 29.4 13.1 36 10.1 SSE 7 11 4 6 1012.6 1010.5 0.0
04/05:00pm 30.3 29.6 13.1 34 10.4 ESE 9 11 5 6 1012.6 1010.5 0.0
04/04:30pm 30.5 29.8 14.2 37 10.0 ESE 11 15 6 8 1012.6 1010.5 0.0
04/04:00pm 30.6 29.5 12.0 32 11.1 ESE 9 13 5 7 1012.5 1010.4 0.0
04/03:30pm 30.6 29.6 13.4 35 10.5 SE 11 17 6 9 1012.7 1010.6 0.0
04/03:00pm 30.8 30.4 13.1 34 10.7 ESE 7 13 4 7 1013.0 1010.9 0.0
04/02:30pm 30.5 29.8 14.2 37 10.0 E 11 17 6 9 1013.1 1011.0 0.0
04/02:00pm 30.2 31.5 16.2 42 8.9 S 4 9 2 5 1013.6 1011.5 0.0
04/01:30pm 29.2 28.8 14.2 40 9.2 ESE 9 17 5 9 1014.1 1012.0 0.0
04/01:00pm 29.2 30.3 16.7 46 8.0 NE 6 11 3 6 1014.6 1012.5 0.0
04/12:30pm 28.8 29.6 16.4 47 7.8 SSE 7 17 4 9 1015.0 1012.9 0.0
04/12:00pm 28.1 28.8 15.7 46 7.7 E 6 13 3 7 1015.3 1013.2 0.0
04/11:30am 27.3 28.4 17.2 54 6.4 SE 7 13 4 7 1015.7 1013.6 0.0
04/11:00am 26.7 27.5 17.2 56 6.0 ENE 9 15 5 8 1016.1 1014.1 0.0
04/10:30am 25.3 25.3 16.2 57 5.7 ENE 11 17 6 9 1016.6 1014.5 0.0
04/10:00am 24.7 25.1 16.2 59 5.3 E 9 13 5 7 1016.8 1014.7 0.0
04/09:30am 24.8 25.2 16.2 58 5.4 E 9 17 5 9 1016.9 1014.8 0.0
04/09:00am 23.7 24.3 16.7 65 4.4 E 9 11 5 6 1017.0 1014.9 0.0
04/08:30am 22.9 24.0 17.1 70 3.6 NE 7 15 4 8 1016.9 1014.8 0.0
04/08:00am 20.9 23.2 17.7 82 2.0 ENE 2 6 1 3 1016.7 1014.6 0.0
04/07:30am 19.5 22.1 17.5 88 1.2 CALM 0 0 0 0 1016.5 1014.4 0.0
04/07:00am 18.0 20.3 16.7 92 0.8 CALM 0 6 0 3 1015.9 1013.8 0.0
04/06:30am 15.8 17.5 15.2 96 0.4 CALM 0 4 0 2 1015.6 1013.5 0.0
04/06:00am 14.2 14.4 13.2 94 0.6 NNE 4 7 2 4 1015.3 1013.2 0.0
04/05:30am 15.1 15.7 14.3 95 0.5 S 4 6 2 3 1015.2 1013.1 0.0
04/05:00am 15.6 15.6 15.1 97 0.3 S 9 11 5 6 1015.1 1013.0 0.0
04/04:30am 15.2 15.5 14.4 95 0.5 S 6 9 3 5 1014.9 1012.8 0.0
04/04:00am 15.6 17.1 14.6 94 0.6 CALM 0 0 0 0 1014.9 1012.8 0.0
04/03:30am 16.0 17.8 15.4 96 0.4 CALM 0 4 0 2 1015.0 1012.9 0.0
04/03:00am 16.6 18.5 15.8 95 0.5 CALM 0 0 0 0 1015.3 1013.2 0.0
04/02:30am 16.5 18.4 15.7 95 0.5 CALM 0 0 0 0 1015.7 1013.6 0.0
04/02:00am 16.9 18.9 15.9 94 0.6 CALM 0 0 0 0 1016.0 1013.9 0.0
04/01:30am 17.0 18.9 15.7 92 0.8 CALM 0 0 0 0 1016.4 1014.3 0.0
04/01:00am 17.7 20.0 16.7 94 0.6 CALM 0 0 0 0 1016.7 1014.6 0.0
04/12:30am 17.9 20.2 16.8 93 0.7 CALM 0 0 0 0 1017.0 1014.9 0.0
04/12:00am 18.0 20.1 16.3 90 1.0 CALM 0 0 0 0 1017.3 1015.2 0.0
 
Date/Time
EST
Tmp

°C
App
Tmp
°C
Dew
Point
°C
Rel
Hum
%
Delta-T

°C
Wind Press
QNH
hPa
Press
MSL
hPa
Rain
since
9 am
mm
Dir
 
Spd
km/h
Gust
km/h
Spd
kts
Gust
kts
03/11:30pm 18.8 21.1 16.8 88 1.2 CALM 0 0 0 0 1017.2 1015.1 0.0
03/11:00pm 19.4 21.8 17.0 86 1.5 CALM 0 6 0 3 1017.3 1015.2 0.0
03/10:30pm 19.7 20.9 17.3 86 1.5 E 7 11 4 6 1017.2 1015.1 0.0
03/10:00pm 20.2 21.3 17.2 83 1.9 E 7 11 4 6 1017.2 1015.1 0.0
03/09:30pm 21.0 21.8 17.4 80 2.3 ENE 9 13 5 7 1017.0 1014.9 0.0
03/09:00pm 21.2 22.0 17.2 78 2.5 ENE 9 13 5 7 1016.8 1014.7 0.0
03/08:30pm 21.6 22.4 16.3 72 3.3 ENE 7 11 4 6 1016.6 1014.5 0.0
03/08:00pm 21.7 22.0 16.9 74 3.0 E 11 13 6 7 1016.2 1014.2 0.0
03/07:30pm 21.7 22.4 17.1 75 2.9 E 9 11 5 6 1015.8 1013.7 0.0
03/07:00pm 21.9 22.7 17.3 75 2.9 E 9 11 5 6 1015.4 1013.3 0.0
03/06:30pm 24.0 24.7 17.0 65 4.4 E 9 11 5 6 1015.2 1013.1 0.0
03/06:00pm 25.6 25.8 16.7 58 5.6 E 11 17 6 9 1015.0 1012.9 0.0
03/05:30pm 26.8 27.1 17.0 55 6.2 ESE 11 15 6 8 1014.8 1012.7 0.0
03/05:00pm 27.5 27.2 16.5 51 6.9 ESE 13 20 7 11 1014.6 1012.5 0.0
03/04:30pm 27.9 27.2 16.5 50 7.2 E 15 20 8 11 1014.4 1012.3 0.0
03/04:00pm 28.3 27.3 16.6 49 7.4 ESE 17 28 9 15 1014.3 1012.2 0.0
03/03:30pm 28.4 28.2 16.7 49 7.4 SE 13 22 7 12 1014.2 1012.1 0.0
03/03:00pm 28.5 27.9 16.7 48 7.5 ESE 15 26 8 14 1014.3 1012.2 0.0
03/02:30pm 28.2 27.4 16.1 47 7.6 ESE 15 20 8 11 1014.5 1012.4 0.0
03/02:00pm 28.2 28.7 17.4 52 6.9 E 11 22 6 12 1014.9 1012.8 0.0
03/01:30pm 28.3 28.7 18.1 54 6.6 SSE 13 20 7 11 1015.2 1013.1 0.0
03/01:00pm 27.3 26.9 16.3 51 6.9 SSE 13 20 7 11 1015.7 1013.6 0.0
03/12:30pm 27.7 27.3 17.2 52 6.7 ESE 15 20 8 11 1016.2 1014.2 0.0
03/12:00pm 26.8 26.6 16.7 54 6.4 SE 13 26 7 14 1016.7 1014.6 0.0
03/11:30am 25.7 24.7 15.7 54 6.2 ESE 15 26 8 14 1017.1 1015.0 0.0
03/11:00am 25.1 24.1 15.7 56 5.8 SE 15 28 8 15 1017.5 1015.4 0.0
03/10:30am 26.1 26.0 16.9 57 5.8 SE 13 19 7 10 1017.7 1015.6 0.0
03/10:00am 25.9 26.0 17.5 59 5.3 SE 13 20 7 11 1017.8 1015.7 0.0
03/09:30am 24.6 25.0 17.3 64 4.6 SE 11 17 6 9 1017.6 1015.5 0.0
03/09:00am 23.8 23.8 17.3 67 4.1 ESE 13 20 7 11 1017.5 1015.4 0.0
03/08:30am 23.4 22.9 17.8 71 3.6 ESE 17 24 9 13 1017.4 1015.3 0.0
03/08:00am 22.2 22.6 17.3 74 3.1 ESE 11 20 6 11 1017.2 1015.1 0.0
03/07:30am 21.9 22.7 18.1 79 2.4 SE 11 19 6 10 1017.1 1015.0 0.0
03/07:00am 20.9 22.3 18.7 87 1.4 SE 9 17 5 9 1016.8 1014.7 0.0
03/06:30am 19.6 21.2 18.3 92 0.8 S 7 11 4 6 1016.6 1014.5 0.0
03/06:00am 18.9 19.7 17.4 91 0.9 SSE 9 13 5 7 1016.2 1014.2 0.0
03/05:30am 19.3 19.9 17.8 91 0.9 SSE 11 19 6 10 1015.9 1013.8 0.0
03/05:00am 19.5 20.2 18.0 91 0.9 SSE 11 17 6 9 1015.8 1013.7 0.0
03/04:30am 19.5 20.5 17.8 90 1.1 SE 9 13 5 7 1015.7 1013.6 0.0
03/04:00am 20.0 20.7 18.0 88 1.3 SE 11 15 6 8 1015.5 1013.4 0.0
03/03:30am 20.2 20.9 18.0 87 1.4 SE 11 17 6 9 1015.3 1013.2 0.0
03/03:00am 20.1 20.4 18.0 88 1.3 SE 13 20 7 11 1015.3 1013.2 0.0
03/02:30am 20.2 21.0 18.1 88 1.3 SE 11 24 6 13 1015.4 1013.3 0.0
03/02:00am 19.7 20.7 17.7 88 1.3 SE 9 15 5 8 1015.5 1013.4 0.0
03/01:30am 20.0 20.3 18.0 88 1.3 ESE 13 20 7 11 1015.6 1013.5 0.0
03/01:00am 19.8 20.4 17.8 88 1.3 ESE 11 17 6 9 1016.0 1013.9 0.0
03/12:30am 20.3 19.8 17.9 86 1.5 ESE 17 28 9 15 1016.4 1014.3 0.0
03/12:00am 20.4 21.2 18.2 87 1.4 ESE 11 19 6 10 1016.5 1014.4 0.0
 
Date/Time
EST
Tmp

°C
App
Tmp
°C
Dew
Point
°C
Rel
Hum
%
Delta-T

°C
Wind Press
QNH
hPa
Press
MSL
hPa
Rain
since
9 am
mm
Dir
 
Spd
km/h
Gust
km/h
Spd
kts
Gust
kts
02/11:30pm 20.7 20.9 18.5 87 1.4 ESE 15 24 8 13 1016.5 1014.4 0.0
02/11:00pm 20.7 20.4 18.3 86 1.5 ESE 17 26 9 14 1016.4 1014.3 0.0
02/10:30pm 20.9 20.6 18.3 85 1.6 ESE 17 28 9 15 1016.5 1014.4 0.0
02/10:00pm 20.8 21.5 18.0 84 1.8 ESE 11 20 6 11 1016.6 1014.5 0.0
02/09:30pm 21.0 21.3 17.8 82 2.0 ESE 13 17 7 9 1016.5 1014.4 0.0
02/09:00pm 21.2 21.5 18.0 82 2.0 E 13 19 7 10 1016.4 1014.3 0.0
02/08:30pm 21.9 21.5 18.1 79 2.4 E 17 22 9 12 1016.0 1013.9 0.0
02/08:00pm 22.3 22.4 18.3 78 2.5 ESE 15 20 8 11 1015.6 1013.5 0.0
02/07:30pm 22.6 23.1 18.4 77 2.7 ESE 13 20 7 11 1015.2 1013.1 0.0
02/07:00pm 23.4 23.2 18.5 74 3.1 ESE 17 26 9 14 1014.7 1012.6 0.0
02/06:30pm 24.7 24.2 18.6 69 3.9 ESE 19 32 10 17 1014.1 1012.0 0.0
02/06:00pm 25.8 25.8 19.0 66 4.4 ESE 17 26 9 14 1013.5 1011.4 0.0
02/05:30pm 26.9 26.5 19.0 62 5.2 ESE 19 30 10 16 1013.0 1010.9 0.0
02/05:00pm 27.7 27.2 19.2 60 5.6 ESE 20 32 11 17 1012.5 1010.4 0.0
02/04:30pm 28.5 28.3 19.7 59 5.8 ESE 20 32 11 17 1012.4 1010.3 0.0
02/04:00pm 29.6 29.8 19.3 54 6.8 ESE 17 24 9 13 1012.1 1010.0 0.0
02/03:30pm 29.6 29.4 18.4 51 7.3 ESE 17 26 9 14 1012.0 1009.9 0.0
02/03:00pm 30.2 31.0 19.9 54 6.9 SE 15 24 8 13 1012.1 1010.0 0.0
02/02:30pm 29.6 29.6 18.1 50 7.5 ESE 15 22 8 12 1012.4 1010.3 0.0
02/02:00pm 29.6 29.9 19.6 55 6.6 SE 17 24 9 13 1012.6 1010.5 0.0
02/01:30pm 28.8 29.0 19.4 56 6.2 ESE 17 28 9 15 1013.0 1010.9 0.0
02/01:00pm 29.2 29.7 20.9 61 5.6 E 19 26 10 14 1013.3 1011.2 0.0

Latest Capital City Observations: Canberra | Sydney | Melbourne | Brisbane | Adelaide | Perth | Hobart | Darwin

Other Formats:

Comma delimited format used in spreadsheet applications
http://www.bom.gov.au/fwo/IDQ60901/IDQ60901.94549.axf

JavaScript Object Notation format (JSON) in row-major order
http://www.bom.gov.au/fwo/IDQ60901/IDQ60901.94549.json